Time;durP1;ratioP1;P1;durP2;ratioP2;P2;SDS_P1;SDS_P2;PMS_P1;PMS_P2;Temp;Humidity;BMP_temperature;BMP_pressure;BME280_temperature;BME280_humidity;BME280_pressure;Samples;Min_cycle;Max_cycle;Signal;HPM_P1;HPM_P2
2023/03/03 00:01:43;;;;;;;1.10;1.10;;;1.50;99.90;;;;;;4421587;32;20077;-68
2023/03/03 00:04:09;;;;;;;2.08;1.15;;;1.50;99.90;;;;;;4421790;32;20086;-69
2023/03/03 00:06:34;;;;;;;6.32;1.15;;;1.60;99.90;;;;;;4420523;32;20147;-68
2023/03/03 00:09:00;;;;;;;1.15;0.95;;;1.60;99.90;;;;;;4419474;32;20196;-69
2023/03/03 00:11:26;;;;;;;0.50;0.50;;;1.50;99.90;;;;;;4419969;32;20053;-67
2023/03/03 00:13:53;;;;;;;0.57;0.57;;;1.50;99.90;;;;;;4419643;32;20085;-68
2023/03/03 00:16:37;;;;;;;0.45;0.45;;;1.40;99.90;;;;;;4420879;32;20496;-68
2023/03/03 00:19:03;;;;;;;0.70;0.70;;;1.50;99.90;;;;;;4421116;32;20548;-68
2023/03/03 00:21:40;;;;;;;0.50;0.50;;;1.50;99.90;;;;;;4423424;32;20211;-68
2023/03/03 00:24:15;;;;;;;0.90;0.90;;;1.50;99.90;;;;;;4421511;32;20120;-68
2023/03/03 00:26:45;;;;;;;0.70;0.70;;;1.60;99.90;;;;;;4420610;32;20426;-68
2023/03/03 00:29:29;;;;;;;0.90;0.90;;;1.70;99.90;;;;;;4425702;32;20143;-67
2023/03/03 00:32:14;;;;;;;0.45;0.45;;;1.80;99.90;;;;;;4424169;32;20066;-68
2023/03/03 00:34:42;;;;;;;0.57;0.57;;;1.80;99.90;;;;;;4413681;32;20085;-68
2023/03/03 00:37:29;;;;;;;0.60;0.60;;;1.70;99.90;;;;;;4422408;32;20093;-69
2023/03/03 00:40:08;;;;;;;0.52;0.52;;;1.50;99.90;;;;;;4412286;32;20085;-68
2023/03/03 00:42:35;;;;;;;0.80;0.80;;;1.50;99.90;;;;;;4421193;32;20081;-68
2023/03/03 00:45:00;;;;;;;0.70;0.70;;;1.40;99.90;;;;;;4422517;32;20069;-67
2023/03/03 00:47:43;;;;;;;1.40;0.88;;;1.40;99.90;;;;;;4420478;32;20069;-68
2023/03/03 00:50:10;;;;;;;1.95;0.90;;;1.30;99.90;;;;;;4424448;32;20084;-67
2023/03/03 00:52:39;;;;;;;1.40;1.30;;;1.40;99.90;;;;;;4423034;32;20263;-68
2023/03/03 00:55:07;;;;;;;0.75;0.75;;;1.40;99.90;;;;;;4424212;32;20062;-69
2023/03/03 00:57:33;;;;;;;0.50;0.50;;;1.50;99.90;;;;;;4422308;32;20136;-66
2023/03/03 00:59:58;;;;;;;0.68;0.68;;;1.40;99.90;;;;;;4423871;32;20076;-68
2023/03/03 01:02:24;;;;;;;0.75;0.75;;;1.40;99.90;;;;;;4423085;32;20508;-68
2023/03/03 01:04:52;;;;;;;0.70;0.70;;;1.50;99.90;;;;;;4422997;32;20421;-68
2023/03/03 01:07:18;;;;;;;0.50;0.50;;;1.60;99.90;;;;;;4422766;32;20130;-68
2023/03/03 01:09:43;;;;;;;0.40;0.40;;;1.70;99.90;;;;;;4422758;32;20147;-68
2023/03/03 01:12:10;;;;;;;0.77;0.77;;;1.80;99.90;;;;;;4424584;32;20065;-68
2023/03/03 01:14:36;;;;;;;0.90;0.90;;;1.60;99.90;;;;;;4420527;32;20084;-68
2023/03/03 01:17:02;;;;;;;0.60;0.60;;;1.60;99.90;;;;;;4420808;32;20109;-69
2023/03/03 01:19:27;;;;;;;2.30;1.12;;;1.50;99.90;;;;;;4422537;32;20438;-68
2023/03/03 01:21:53;;;;;;;1.15;1.05;;;1.50;99.90;;;;;;4420117;32;20073;-68
2023/03/03 01:24:18;;;;;;;1.52;1.00;;;1.60;99.90;;;;;;4421778;32;20086;-68
2023/03/03 01:26:44;;;;;;;0.80;0.80;;;1.60;99.90;;;;;;4421917;32;20509;-67
2023/03/03 01:29:09;;;;;;;0.85;0.85;;;1.70;99.90;;;;;;4421855;32;20429;-68
2023/03/03 01:31:35;;;;;;;0.40;0.40;;;1.50;99.90;;;;;;4422890;32;20085;-68
2023/03/03 01:34:00;;;;;;;0.70;0.70;;;1.30;99.90;;;;;;4420585;32;20092;-68
2023/03/03 01:36:28;;;;;;;0.50;0.50;;;1.50;99.90;;;;;;4421811;32;20059;-68
2023/03/03 01:38:53;;;;;;;0.57;0.57;;;1.60;99.90;;;;;;4405275;32;20081;-68
2023/03/03 01:41:19;;;;;;;0.80;0.80;;;1.60;99.90;;;;;;4422410;32;20061;-68
2023/03/03 01:43:48;;;;;;;0.70;0.70;;;1.60;99.90;;;;;;4421942;32;20117;-68
2023/03/03 01:46:40;;;;;;;8.20;1.98;;;1.50;99.90;;;;;;4424823;32;20061;-68
2023/03/03 01:49:12;;;;;;;0.73;0.73;;;1.60;99.90;;;;;;4414785;32;20078;-68
2023/03/03 01:51:46;;;;;;;1.00;0.90;;;1.70;99.90;;;;;;4423324;32;20080;-68
2023/03/03 01:54:16;;;;;;;0.70;0.70;;;1.60;99.90;;;;;;4424818;32;20062;-68
2023/03/03 01:56:43;;;;;;;0.85;0.85;;;1.40;99.90;;;;;;4421920;32;21185;-69
2023/03/03 01:59:16;;;;;;;0.50;0.50;;;1.40;99.90;;;;;;4420872;32;20509;-68
2023/03/03 02:01:41;;;;;;;0.70;0.70;;;1.40;99.90;;;;;;4421794;32;20061;-68
2023/03/03 02:04:07;;;;;;;0.40;0.40;;;1.40;99.90;;;;;;4423780;32;20548;-67
2023/03/03 02:06:37;;;;;;;0.65;0.47;;;1.40;99.90;;;;;;4422413;32;20050;-68
2023/03/03 02:09:13;;;;;;;0.65;0.65;;;1.30;99.90;;;;;;4421623;32;20081;-68
2023/03/03 02:11:42;;;;;;;0.98;0.95;;;1.20;99.90;;;;;;4421778;32;20531;-68
2023/03/03 02:14:09;;;;;;;3.47;1.77;;;1.30;99.90;;;;;;4422629;32;20073;-67
2023/03/03 02:16:34;;;;;;;0.68;0.68;;;1.30;99.90;;;;;;4420882;32;20114;-68
2023/03/03 02:19:00;;;;;;;1.27;1.17;;;1.30;99.90;;;;;;4420976;32;20069;-68
2023/03/03 02:21:27;;;;;;;0.60;0.60;;;1.30;99.90;;;;;;4424344;32;20085;-68
2023/03/03 02:24:04;;;;;;;3.25;0.90;;;1.30;99.90;;;;;;4421794;32;20156;-68
2023/03/03 02:26:33;;;;;;;1.40;0.98;;;1.30;99.90;;;;;;4419280;32;20081;-68
2023/03/03 02:28:59;;;;;;;0.68;0.68;;;1.30;99.90;;;;;;4422033;32;20147;-68
2023/03/03 02:31:28;;;;;;;3.30;1.70;;;1.10;99.90;;;;;;4421179;32;20829;-68
2023/03/03 02:33:54;;;;;;;0.98;0.98;;;1.00;99.90;;;;;;4422128;32;20520;-67
2023/03/03 02:36:25;;;;;;;0.57;0.57;;;1.10;99.90;;;;;;4418409;32;20061;-66
2023/03/03 02:38:56;;;;;;;;;;;1.20;99.90;;;;;;4419912;32;20097;-67
2023/03/03 02:42:00;;;;;;;0.62;0.62;;;1.20;99.90;;;;;;4418492;32;20392;-66
2023/03/03 02:44:29;;;;;;;1.92;1.80;;;1.10;99.90;;;;;;4392224;32;20528;-67
2023/03/03 02:46:55;;;;;;;1.27;1.23;;;1.20;99.90;;;;;;4421390;32;20065;-68
2023/03/03 02:49:24;;;;;;;0.47;0.47;;;1.20;99.90;;;;;;4423020;32;20116;-68
2023/03/03 02:51:50;;;;;;;0.70;0.70;;;1.20;99.90;;;;;;4421397;32;20096;-68
2023/03/03 02:54:18;;;;;;;0.55;0.55;;;1.00;99.90;;;;;;4422234;32;20106;-68
2023/03/03 02:56:44;;;;;;;0.50;0.50;;;1.10;99.90;;;;;;4419866;32;20073;-68
2023/03/03 02:59:10;;;;;;;0.80;0.80;;;1.00;99.90;;;;;;4422455;32;20061;-68
2023/03/03 03:01:36;;;;;;;0.70;0.70;;;0.90;99.90;;;;;;4417736;32;20073;-68
2023/03/03 03:04:09;;;;;;;1.65;1.20;;;1.00;99.90;;;;;;4421444;32;20098;-68
2023/03/03 03:06:35;;;;;;;0.98;0.85;;;1.00;99.90;;;;;;4419684;32;20074;-67
2023/03/03 03:09:00;;;;;;;2.05;1.52;;;0.90;99.90;;;;;;4421535;32;20110;-69
2023/03/03 03:11:26;;;;;;;1.05;0.98;;;1.00;99.90;;;;;;4421335;32;20084;-68
2023/03/03 03:13:52;;;;;;;0.80;0.80;;;0.90;99.90;;;;;;4405108;32;20081;-68
2023/03/03 03:16:18;;;;;;;0.98;0.98;;;1.00;99.90;;;;;;4418840;32;20081;-68
2023/03/03 03:18:43;;;;;;;0.68;0.68;;;1.00;99.90;;;;;;4420274;32;20110;-69
2023/03/03 03:21:11;;;;;;;0.60;0.60;;;0.90;99.90;;;;;;4418459;32;20085;-69
2023/03/03 03:23:37;;;;;;;0.60;0.60;;;0.80;99.90;;;;;;4417933;32;20109;-69
2023/03/03 03:26:03;;;;;;;0.60;0.60;;;0.90;99.90;;;;;;4420527;32;20089;-69
2023/03/03 03:28:29;;;;;;;1.75;1.08;;;0.90;99.90;;;;;;4419959;32;20140;-65
2023/03/03 03:30:55;;;;;;;0.95;0.80;;;0.70;99.90;;;;;;4421653;32;20395;-68
2023/03/03 03:33:20;;;;;;;0.55;0.55;;;0.80;99.90;;;;;;4420434;32;20101;-69
2023/03/03 03:35:46;;;;;;;0.50;0.50;;;0.80;99.90;;;;;;4421518;32;20070;-67
2023/03/03 03:38:13;;;;;;;0.85;0.85;;;1.00;99.90;;;;;;4421232;32;20128;-66
2023/03/03 03:40:38;;;;;;;0.60;0.60;;;0.80;99.90;;;;;;4418852;32;20073;-69
2023/03/03 03:43:04;;;;;;;1.42;1.10;;;0.80;99.90;;;;;;4419294;32;20105;-68
2023/03/03 03:45:29;;;;;;;0.55;0.55;;;0.90;99.90;;;;;;4421229;32;20134;-68
2023/03/03 03:47:55;;;;;;;1.55;1.10;;;0.90;99.90;;;;;;4421868;32;20110;-68
2023/03/03 03:50:20;;;;;;;0.93;0.80;;;1.00;99.90;;;;;;4421757;32;20115;-67
2023/03/03 03:52:45;;;;;;;1.10;0.68;;;1.00;99.90;;;;;;4420658;32;20109;-68
2023/03/03 03:55:11;;;;;;;0.82;0.82;;;0.90;99.90;;;;;;4420010;32;20074;-68
2023/03/03 03:57:37;;;;;;;0.70;0.70;;;0.90;99.90;;;;;;4422622;32;20823;-69
2023/03/03 04:00:05;;;;;;;0.50;0.50;;;0.80;99.90;;;;;;4420856;32;20094;-66
2023/03/03 04:02:30;;;;;;;7.75;1.70;;;0.90;99.90;;;;;;4409316;32;20061;-68
2023/03/03 04:04:56;;;;;;;0.47;0.47;;;0.70;99.90;;;;;;4424732;32;20089;-69
2023/03/03 04:07:21;;;;;;;4.07;1.15;;;0.80;99.90;;;;;;4422740;32;20116;-68
2023/03/03 04:09:47;;;;;;;0.95;0.77;;;0.80;99.90;;;;;;4424270;32;20088;-68
2023/03/03 04:12:12;;;;;;;0.85;0.85;;;0.70;99.90;;;;;;4423282;32;20068;-68
2023/03/03 04:14:38;;;;;;;1.08;1.08;;;0.90;99.90;;;;;;4421158;32;20066;-69
2023/03/03 04:17:03;;;;;;;1.52;1.10;;;0.90;99.90;;;;;;4423422;32;20083;-68
2023/03/03 04:19:29;;;;;;;5.78;0.75;;;0.90;99.90;;;;;;4423241;32;20144;-68
2023/03/03 04:21:54;;;;;;;0.55;0.55;;;0.80;99.90;;;;;;4422903;32;20097;-69
2023/03/03 04:24:20;;;;;;;0.45;0.45;;;0.70;99.90;;;;;;4424045;32;20097;-68
2023/03/03 04:26:45;;;;;;;0.50;0.50;;;0.50;99.90;;;;;;4425354;32;20090;-67
2023/03/03 04:29:11;;;;;;;18.87;2.35;;;0.50;99.90;;;;;;4423989;32;20094;-68
2023/03/03 04:31:36;;;;;;;1.23;1.12;;;0.60;99.90;;;;;;4424854;32;20071;-69
2023/03/03 04:34:02;;;;;;;1.15;0.88;;;0.70;99.90;;;;;;4421813;32;20070;-68
2023/03/03 04:36:27;;;;;;;0.50;0.50;;;0.70;99.90;;;;;;4420019;32;20069;-68
2023/03/03 04:38:53;;;;;;;1.30;1.20;;;0.60;99.90;;;;;;4425824;32;20089;-67
2023/03/03 04:41:18;;;;;;;1.55;0.73;;;0.60;99.90;;;;;;4421834;32;20065;-68
2023/03/03 04:43:44;;;;;;;0.98;0.98;;;0.50;99.90;;;;;;4423058;32;21290;-67
2023/03/03 04:46:09;;;;;;;1.10;1.00;;;0.50;99.90;;;;;;4422927;32;20069;-69
2023/03/03 04:48:35;;;;;;;5.78;1.50;;;0.40;99.90;;;;;;4421700;32;20081;-68
2023/03/03 04:51:00;;;;;;;3.15;2.05;;;0.40;99.90;;;;;;4421858;32;20058;-68
2023/03/03 04:53:26;;;;;;;0.75;0.75;;;0.50;99.90;;;;;;4421827;32;20097;-69
2023/03/03 04:55:52;;;;;;;0.45;0.45;;;0.60;99.90;;;;;;4422759;32;20098;-68
2023/03/03 04:58:19;;;;;;;1.48;0.85;;;0.60;99.90;;;;;;4419956;32;20104;-68
2023/03/03 05:00:46;;;;;;;0.35;0.35;;;0.70;99.90;;;;;;4424175;32;20551;-68
2023/03/03 05:03:12;;;;;;;0.80;0.80;;;0.70;99.90;;;;;;4422711;32;20136;-68
2023/03/03 05:05:39;;;;;;;0.93;0.90;;;0.60;99.90;;;;;;4424984;32;21725;-68
2023/03/03 05:08:04;;;;;;;1.20;0.70;;;0.70;99.90;;;;;;4423508;32;20540;-69
2023/03/03 05:10:30;;;;;;;0.47;0.47;;;0.70;99.90;;;;;;4421753;32;20076;-69
2023/03/03 05:12:55;;;;;;;0.40;0.40;;;0.60;99.90;;;;;;4418829;32;20484;-68
2023/03/03 05:15:21;;;;;;;0.47;0.47;;;0.60;99.90;;;;;;4423282;32;20073;-68
2023/03/03 05:17:46;;;;;;;1.05;0.68;;;0.60;99.90;;;;;;4424268;32;20082;-69
2023/03/03 05:20:12;;;;;;;1.40;1.30;;;0.60;99.90;;;;;;4409450;32;21061;-68
2023/03/03 05:22:38;;;;;;;0.40;0.40;;;0.70;99.90;;;;;;4418349;32;20604;-66
2023/03/03 05:25:04;;;;;;;2.58;1.15;;;0.60;99.90;;;;;;4422362;32;20089;-68
2023/03/03 05:27:30;;;;;;;0.50;0.50;;;0.70;99.90;;;;;;4423625;32;20069;-68
2023/03/03 05:29:55;;;;;;;1.00;0.95;;;0.60;99.90;;;;;;4424872;32;20093;-68
2023/03/03 05:32:21;;;;;;;0.50;0.50;;;0.50;99.90;;;;;;4423518;32;20073;-68
2023/03/03 05:34:46;;;;;;;0.80;0.80;;;0.50;99.90;;;;;;4422611;32;20497;-68
2023/03/03 05:37:12;;;;;;;0.80;0.80;;;0.50;99.90;;;;;;4420535;32;20437;-69
2023/03/03 05:42:05;;;;;;;0.40;0.40;;;0.50;99.90;;;;;;4421396;32;20074;-69
2023/03/03 05:44:31;;;;;;;0.60;0.60;;;0.50;99.90;;;;;;4422855;32;20516;-68
2023/03/03 05:46:57;;;;;;;1.75;0.90;;;0.50;99.90;;;;;;4424102;32;20093;-68
2023/03/03 05:49:24;;;;;;;0.50;0.50;;;0.40;99.90;;;;;;4422171;32;20117;-68
2023/03/03 05:51:49;;;;;;;0.40;0.40;;;0.60;99.90;;;;;;4421102;32;20094;-67
2023/03/03 05:54:15;;;;;;;2.60;1.15;;;0.60;99.90;;;;;;4421855;32;20093;-67
2023/03/03 05:56:40;;;;;;;0.50;0.50;;;0.70;99.90;;;;;;4423910;32;20108;-68
2023/03/03 05:59:05;;;;;;;0.70;0.70;;;0.70;99.90;;;;;;4420165;32;20096;-68
2023/03/03 06:01:31;;;;;;;0.52;0.52;;;0.70;99.90;;;;;;4414785;32;20537;-68
2023/03/03 06:03:57;;;;;;;4.57;1.25;;;0.80;99.90;;;;;;4417709;32;20066;-68
2023/03/03 06:06:22;;;;;;;1.15;0.85;;;0.80;99.90;;;;;;4418903;32;20066;-68
2023/03/03 06:08:48;;;;;;;1.17;1.02;;;0.80;99.90;;;;;;4421284;32;20402;-65
2023/03/03 06:11:15;;;;;;;0.88;0.88;;;0.70;99.90;;;;;;4420897;32;20651;-69
2023/03/03 06:13:41;;;;;;;0.43;0.43;;;0.70;99.90;;;;;;4421313;32;20085;-68
2023/03/03 06:16:07;;;;;;;1.08;1.08;;;0.70;99.90;;;;;;4420680;32;20399;-67
2023/03/03 06:18:32;;;;;;;0.50;0.50;;;0.50;99.90;;;;;;4406892;32;20101;-66
2023/03/03 06:20:58;;;;;;;0.40;0.40;;;0.50;99.90;;;;;;4414433;32;20128;-68
2023/03/03 06:23:23;;;;;;;0.52;0.52;;;0.50;99.90;;;;;;4419696;32;20203;-68
2023/03/03 06:25:49;;;;;;;3.05;1.08;;;0.30;99.90;;;;;;4417981;32;20129;-66
2023/03/03 06:28:16;;;;;;;0.90;0.73;;;0.40;99.90;;;;;;4410604;32;20084;-68
2023/03/03 06:30:41;;;;;;;0.70;0.70;;;0.30;99.90;;;;;;4406591;32;20102;-66
2023/03/03 06:33:08;;;;;;;0.57;0.57;;;0.40;99.90;;;;;;4397778;32;20101;-67
2023/03/03 06:35:33;;;;;;;0.50;0.50;;;0.40;99.90;;;;;;4410644;32;20089;-68
2023/03/03 06:37:59;;;;;;;1.17;1.08;;;0.40;99.90;;;;;;4408134;32;20093;-67
2023/03/03 06:40:25;;;;;;;0.50;0.50;;;0.50;99.90;;;;;;4417309;32;20158;-68
2023/03/03 06:42:50;;;;;;;0.55;0.55;;;0.30;99.90;;;;;;4410679;32;20094;-65
2023/03/03 06:45:16;;;;;;;0.47;0.47;;;0.40;99.90;;;;;;4411591;32;20077;-67
2023/03/03 06:47:42;;;;;;;1.50;1.12;;;0.50;99.90;;;;;;4408843;32;20097;-67
2023/03/03 06:50:10;;;;;;;0.52;0.52;;;0.50;99.90;;;;;;4405238;32;20505;-65
2023/03/03 06:52:35;;;;;;;0.50;0.50;;;0.40;99.90;;;;;;4402996;32;20448;-63
2023/03/03 06:55:10;;;;;;;0.82;0.82;;;0.50;99.90;;;;;;4396973;32;20077;-65
2023/03/03 06:57:37;;;;;;;0.85;0.85;;;0.50;99.90;;;;;;4390845;32;20102;-65
2023/03/03 07:00:29;;;;;;;1.17;1.08;;;0.60;99.90;;;;;;4372164;32;20825;-65
2023/03/03 07:03:00;;;;;;;0.60;0.60;;;0.70;99.90;;;;;;4379414;32;20129;-63
2023/03/03 07:05:27;;;;;;;;;;;0.60;99.90;;;;;;4366858;32;20105;-65
2023/03/03 07:07:54;;;;;;;0.40;0.40;;;0.60;99.90;;;;;;4377693;32;19965;-64
2023/03/03 07:10:27;;;;;;;1.48;1.37;;;0.60;99.90;;;;;;4397508;32;20507;-65
2023/03/03 07:12:55;;;;;;;0.40;0.40;;;0.70;99.90;;;;;;4376976;32;20073;-67
2023/03/03 07:15:27;;;;;;;0.95;0.95;;;0.60;99.90;;;;;;4393856;32;20090;-67
2023/03/03 07:17:57;;;;;;;0.47;0.47;;;0.70;99.90;;;;;;4378274;32;20069;-65
2023/03/03 07:20:37;;;;;;;0.70;0.70;;;0.60;99.90;;;;;;4391194;32;20580;-67
2023/03/03 07:23:24;;;;;;;0.85;0.85;;;0.70;99.90;;;;;;4380796;32;20121;-64
2023/03/03 07:25:51;;;;;;;0.50;0.50;;;0.80;99.90;;;;;;4374464;32;20151;-63
2023/03/03 07:28:26;;;;;;;0.80;0.80;;;0.70;99.90;;;;;;4367260;32;20192;-64
2023/03/03 07:30:53;;;;;;;0.70;0.70;;;0.80;99.90;;;;;;4367907;32;20224;-64
2023/03/03 07:33:28;;;;;;;0.40;0.40;;;0.70;99.90;;;;;;4378469;32;20134;-64
2023/03/03 07:35:56;;;;;;;0.40;0.40;;;0.60;99.90;;;;;;4385483;32;20338;-67
2023/03/03 07:38:36;;;;;;;0.50;0.50;;;0.70;99.90;;;;;;4382063;32;20105;-65
2023/03/03 07:41:04;;;;;;;0.55;0.55;;;0.80;99.90;;;;;;4375227;32;21692;-65
2023/03/03 07:43:34;;;;;;;0.50;0.50;;;0.80;99.90;;;;;;4389352;32;20560;-65
2023/03/03 07:46:11;;;;;;;1.50;1.08;;;0.80;99.90;;;;;;4366104;32;20092;-62
2023/03/03 07:48:39;;;;;;;0.62;0.62;;;0.90;99.90;;;;;;4383467;32;20101;-65
2023/03/03 07:51:17;;;;;;;1.77;0.88;;;0.70;99.90;;;;;;4392998;32;20564;-65
2023/03/03 07:53:43;;;;;;;0.57;0.57;;;0.50;99.90;;;;;;4383307;32;20796;-64
2023/03/03 07:56:26;;;;;;;0.60;0.60;;;0.60;99.90;;;;;;4378593;32;20284;-64
2023/03/03 07:58:52;;;;;;;0.40;0.40;;;0.60;99.90;;;;;;4380628;32;20105;-67
2023/03/03 08:01:39;;;;;;;0.40;0.40;;;0.50;99.90;;;;;;4382374;32;20860;-64
2023/03/03 08:04:14;;;;;;;0.70;0.70;;;0.30;99.90;;;;;;4368372;32;20105;-64
2023/03/03 08:06:49;;;;;;;0.40;0.40;;;0.30;99.90;;;;;;4378184;32;20793;-63
2023/03/03 08:09:17;;;;;;;0.93;0.85;;;0.40;99.90;;;;;;4365666;32;20788;-66
2023/03/03 08:11:55;;;;;;;0.68;0.68;;;0.50;99.90;;;;;;4385281;32;20949;-66
2023/03/03 08:14:28;;;;;;;0.50;0.50;;;0.60;99.90;;;;;;4384423;32;20234;-64
2023/03/03 08:16:55;;;;;;;0.40;0.40;;;0.60;99.90;;;;;;4384644;32;20230;-64
2023/03/03 08:19:20;;;;;;;0.40;0.40;;;0.60;99.90;;;;;;4387924;32;20293;-64
2023/03/03 08:21:46;;;;;;;0.50;0.50;;;0.60;99.90;;;;;;4383490;32;20086;-65
2023/03/03 08:24:12;;;;;;;10.25;1.08;;;0.40;99.90;;;;;;4384311;32;20122;-65
2023/03/03 08:26:37;;;;;;;0.50;0.50;;;0.50;99.90;;;;;;4386847;32;20407;-65
2023/03/03 08:29:03;;;;;;;11.10;3.12;;;0.60;99.90;;;;;;4383881;32;20175;-65
2023/03/03 08:31:28;;;;;;;0.80;0.80;;;0.50;99.90;;;;;;4384182;32;20292;-64
2023/03/03 08:33:54;;;;;;;0.40;0.40;;;0.40;99.90;;;;;;4374240;32;20298;-65
2023/03/03 08:36:20;;;;;;;0.47;0.47;;;0.50;99.90;;;;;;4373557;32;20089;-66
2023/03/03 08:38:46;;;;;;;0.50;0.50;;;0.60;99.90;;;;;;4372338;32;20089;-65
2023/03/03 08:41:12;;;;;;;0.40;0.40;;;0.60;99.90;;;;;;4398962;32;20405;-64
2023/03/03 08:43:37;;;;;;;0.43;0.43;;;0.70;99.90;;;;;;4390559;32;20102;-68
2023/03/03 08:46:05;;;;;;;0.50;0.50;;;0.80;99.90;;;;;;4393030;32;20117;-63
2023/03/03 08:48:44;;;;;;;0.50;0.50;;;1.00;99.90;;;;;;4374529;32;20673;-64
2023/03/03 08:51:10;;;;;;;0.40;0.40;;;1.10;99.90;;;;;;4366250;32;20310;-64
2023/03/03 08:53:37;;;;;;;0.70;0.70;;;1.00;99.90;;;;;;4352725;32;20097;-64
2023/03/03 08:56:04;;;;;;;3.62;0.85;;;1.10;99.90;;;;;;4366041;32;20125;-63
2023/03/03 08:58:29;;;;;;;0.73;0.73;;;1.10;99.90;;;;;;4366258;32;20253;-65
2023/03/03 09:00:55;;;;;;;0.50;0.50;;;1.10;99.90;;;;;;4366024;32;20097;-65
2023/03/03 09:03:20;;;;;;;0.70;0.70;;;1.10;99.90;;;;;;4344816;32;20291;-64
2023/03/03 09:05:46;;;;;;;2.37;0.73;;;1.20;99.90;;;;;;4373814;32;20303;-66
2023/03/03 09:08:11;;;;;;;0.50;0.50;;;1.20;99.90;;;;;;4373346;32;20741;-65
2023/03/03 09:10:37;;;;;;;0.60;0.60;;;1.20;99.90;;;;;;4373018;32;20488;-64
2023/03/03 09:13:10;;;;;;;2.97;1.00;;;1.40;99.90;;;;;;4355993;32;20118;-65
2023/03/03 09:15:37;;;;;;;0.45;0.45;;;1.40;99.90;;;;;;4340642;32;21116;-66
2023/03/03 09:18:15;;;;;;;0.40;0.40;;;1.40;99.90;;;;;;4360459;32;20100;-65
2023/03/03 09:20:44;;;;;;;0.75;0.75;;;1.40;99.90;;;;;;4366472;32;20101;-65
2023/03/03 09:23:32;;;;;;;0.40;0.40;;;1.40;99.90;;;;;;4353942;32;20109;-66
2023/03/03 09:26:27;;;;;;;0.77;0.77;;;1.50;99.90;;;;;;4355978;32;20093;-65
2023/03/03 09:28:54;;;;;;;0.65;0.65;;;1.50;99.90;;;;;;4361566;32;20134;-65
2023/03/03 09:31:25;;;;;;;0.77;0.77;;;1.50;99.90;;;;;;4376184;32;20516;-65
2023/03/03 09:33:53;;;;;;;0.93;0.93;;;1.60;99.90;;;;;;4371225;32;21535;-66
2023/03/03 09:36:36;;;;;;;1.45;0.90;;;1.70;99.90;;;;;;4357121;32;20151;-65
2023/03/03 09:39:18;;;;;;;0.70;0.70;;;1.70;99.90;;;;;;4367184;32;20093;-65
2023/03/03 09:41:58;;;;;;;0.57;0.57;;;1.50;99.90;;;;;;4362135;32;21557;-65
2023/03/03 09:45:03;;;;;;;0.50;0.50;;;1.60;99.90;;;;;;4375752;32;20529;-66
2023/03/03 09:47:57;;;;;;;0.55;0.55;;;1.80;99.90;;;;;;4347372;32;20439;-66
2023/03/03 09:51:02;;;;;;;0.70;0.70;;;1.80;99.90;;;;;;4367006;32;20089;-64
2023/03/03 09:54:08;;;;;;;0.73;0.73;;;1.90;99.90;;;;;;4348805;32;20105;-66
2023/03/03 09:56:45;;;;;;;0.95;0.95;;;2.10;99.90;;;;;;4361862;32;20918;-66
2023/03/03 09:59:32;;;;;;;2.17;0.90;;;2.30;99.90;;;;;;4387393;32;20145;-65
2023/03/03 10:02:20;;;;;;;0.50;0.50;;;2.20;99.90;;;;;;4353606;32;20400;-65
2023/03/03 10:05:01;;;;;;;0.40;0.40;;;2.00;99.90;;;;;;4374835;32;20156;-64
2023/03/03 10:07:52;;;;;;;0.40;0.40;;;2.00;99.90;;;;;;4376529;32;20717;-64
2023/03/03 10:10:28;;;;;;;0.40;0.40;;;2.00;99.90;;;;;;4354776;32;20432;-66
2023/03/03 10:13:07;;;;;;;0.40;0.40;;;2.00;99.90;;;;;;4360586;32;20556;-65
2023/03/03 10:15:58;;;;;;;0.70;0.70;;;2.20;99.90;;;;;;4368664;32;20805;-63
2023/03/03 10:18:48;;;;;;;0.50;0.50;;;2.30;99.90;;;;;;4350899;32;20215;-65
2023/03/03 10:21:36;;;;;;;0.40;0.40;;;2.20;99.90;;;;;;4358488;32;20153;-66
2023/03/03 10:24:27;;;;;;;0.60;0.60;;;2.10;99.90;;;;;;4359135;32;20608;-66
2023/03/03 10:27:23;;;;;;;1.12;0.73;;;2.20;99.90;;;;;;4361280;32;20081;-66
2023/03/03 10:29:55;;;;;;;0.60;0.60;;;2.40;99.90;;;;;;4373462;32;21551;-66
2023/03/03 10:32:42;;;;;;;1.20;1.15;;;2.30;99.90;;;;;;4372663;32;20848;-65
2023/03/03 10:35:28;;;;;;;0.65;0.65;;;2.40;99.90;;;;;;4355647;32;20121;-67
2023/03/03 10:38:19;;;;;;;0.62;0.62;;;2.40;99.90;;;;;;4367210;32;21458;-67
2023/03/03 10:40:57;;;;;;;1.08;1.05;;;2.50;99.90;;;;;;4379382;32;20105;-66
2023/03/03 10:43:45;;;;;;;1.77;1.40;;;2.30;99.90;;;;;;4386895;32;20768;-64
2023/03/03 10:46:26;;;;;;;0.60;0.60;;;2.20;99.90;;;;;;4363322;32;20171;-64
2023/03/03 10:49:08;;;;;;;0.60;0.60;;;2.30;99.90;;;;;;4376561;32;20129;-66
2023/03/03 10:52:13;;;;;;;0.70;0.70;;;2.50;99.90;;;;;;4362148;32;20234;-65
2023/03/03 10:54:59;;;;;;;4.90;1.02;;;2.60;99.90;;;;;;4359765;32;20073;-67
2023/03/03 10:57:38;;;;;;;1.85;1.58;;;2.60;99.90;;;;;;4367262;32;20105;-65
2023/03/03 11:00:25;;;;;;;0.50;0.50;;;2.50;99.90;;;;;;4389149;32;20146;-65
2023/03/03 11:03:01;;;;;;;0.52;0.52;;;2.60;99.90;;;;;;4371008;32;20167;-66
2023/03/03 11:05:33;;;;;;;1.10;1.10;;;2.60;99.90;;;;;;4384708;32;20133;-66
2023/03/03 11:08:19;;;;;;;20.17;1.73;;;2.70;99.90;;;;;;4384390;32;20101;-68
2023/03/03 11:11:06;;;;;;;1.58;0.82;;;2.70;99.90;;;;;;4364307;32;20105;-66
2023/03/03 11:13:58;;;;;;;4.28;1.00;;;2.70;99.90;;;;;;4384750;32;20070;-64
2023/03/03 11:16:40;;;;;;;4.37;0.98;;;2.70;99.90;;;;;;4364039;32;20429;-66
2023/03/03 11:19:32;;;;;;;0.98;0.98;;;2.90;99.90;;;;;;4377053;32;20121;-66
2023/03/03 11:22:27;;;;;;;26.33;1.95;;;2.90;99.90;;;;;;4360429;32;20354;-63
2023/03/03 11:25:12;;;;;;;0.70;0.70;;;2.80;99.90;;;;;;4378706;32;20162;-65
2023/03/03 11:28:18;;;;;;;0.60;0.60;;;2.80;99.90;;;;;;4381244;32;20358;-63
2023/03/03 11:30:51;;;;;;;0.75;0.75;;;2.70;99.90;;;;;;4369186;32;20606;-63
2023/03/03 11:33:34;;;;;;;0.70;0.60;;;2.70;99.90;;;;;;4381400;32;20491;-61
2023/03/03 11:36:26;;;;;;;0.70;0.70;;;2.80;99.90;;;;;;4368612;32;20100;-66
2023/03/03 11:38:57;;;;;;;0.45;0.45;;;2.80;99.90;;;;;;4376105;32;20128;-64
2023/03/03 11:41:31;;;;;;;1.20;1.05;;;2.70;99.90;;;;;;4390453;32;20105;-65
2023/03/03 11:44:22;;;;;;;0.55;0.55;;;2.70;99.90;;;;;;4397404;32;90649;-65
2023/03/03 11:46:57;;;;;;;1.02;1.02;;;2.80;99.90;;;;;;4382477;32;20092;-64
2023/03/03 11:49:35;;;;;;;1.20;1.10;;;2.80;99.90;;;;;;4399513;32;20069;-65
2023/03/03 11:52:20;;;;;;;16.10;1.50;;;2.70;99.90;;;;;;4401451;32;20093;-62
2023/03/03 11:55:10;;;;;;;0.93;0.93;;;2.70;99.90;;;;;;4387844;32;20101;-65
2023/03/03 11:57:56;;;;;;;0.67;0.67;;;2.80;99.90;;;;;;4386373;32;20156;-64
2023/03/03 12:00:43;;;;;;;0.77;0.65;;;2.90;99.90;;;;;;4383734;32;20785;-64
2023/03/03 12:03:46;;;;;;;0.52;0.52;;;3.00;99.90;;;;;;4347474;32;20180;-63
2023/03/03 12:06:39;;;;;;;0.80;0.80;;;3.10;99.90;;;;;;4348495;32;20085;-66
2023/03/03 12:09:20;;;;;;;12.57;1.37;;;3.20;99.90;;;;;;4357803;32;20101;-66
2023/03/03 12:11:52;;;;;;;1.42;1.20;;;3.30;99.90;;;;;;4384802;32;20966;-62
2023/03/03 12:14:36;;;;;;;0.80;0.68;;;3.30;99.90;;;;;;4387560;32;20814;-64
2023/03/03 12:17:11;;;;;;;1.02;1.00;;;3.40;99.90;;;;;;4387136;32;20109;-66
2023/03/03 12:19:42;;;;;;;2.15;1.37;;;3.50;99.90;;;;;;4387035;32;20088;-64
2023/03/03 12:22:33;;;;;;;0.60;0.60;;;3.50;99.90;;;;;;4376933;32;20733;-64
2023/03/03 12:25:23;;;;;;;1.75;0.80;;;3.70;99.90;;;;;;4380814;32;20169;-63
2023/03/03 12:28:04;;;;;;;0.47;0.47;;;3.70;99.90;;;;;;4380874;32;20339;-65
2023/03/03 12:30:53;;;;;;;0.43;0.43;;;3.60;99.90;;;;;;4386120;32;20171;-65
2023/03/03 12:33:36;;;;;;;0.75;0.75;;;3.50;99.90;;;;;;4371977;32;20604;-62
2023/03/03 12:36:36;;;;;;;0.52;0.52;;;3.40;99.90;;;;;;4385007;32;21357;-64
2023/03/03 12:39:20;;;;;;;4.95;1.20;;;3.30;99.90;;;;;;4384503;32;20129;-65
2023/03/03 12:42:00;;;;;;;0.55;0.55;;;3.40;99.90;;;;;;4381125;32;20125;-64
2023/03/03 12:44:47;;;;;;;0.75;0.75;;;3.40;99.90;;;;;;4370872;32;20124;-65
2023/03/03 12:47:21;;;;;;;1.23;0.98;;;3.50;99.90;;;;;;4358885;32;20093;-63
2023/03/03 12:50:02;;;;;;;0.40;0.40;;;3.40;99.90;;;;;;4377139;32;20089;-66
2023/03/03 12:52:55;;;;;;;0.60;0.60;;;3.50;99.90;;;;;;4385410;32;20069;-65
2023/03/03 12:55:43;;;;;;;1.10;1.00;;;3.60;99.90;;;;;;4355809;32;21132;-63
2023/03/03 12:58:29;;;;;;;0.93;0.93;;;3.70;99.90;;;;;;4368933;32;20100;-65
2023/03/03 13:01:19;;;;;;;1.35;1.25;;;3.80;99.90;;;;;;4371779;32;20951;-66
2023/03/03 13:04:10;;;;;;;0.77;0.77;;;3.80;99.90;;;;;;4364787;32;20292;-65
2023/03/03 13:06:41;;;;;;;;;;;3.90;99.90;;;;;;4387378;32;20364;-65
2023/03/03 13:09:33;;;;;;;0.73;0.73;;;4.00;99.90;;;;;;4382705;32;19988;-61
2023/03/03 13:12:19;;;;;;;10.93;1.00;;;3.90;99.90;;;;;;4379447;32;20556;-64
2023/03/03 13:14:51;;;;;;;1.08;0.98;;;3.60;99.90;;;;;;4380469;32;20092;-66
2023/03/03 13:17:39;;;;;;;1.25;1.15;;;3.60;99.90;;;;;;4387917;32;20924;-65
2023/03/03 13:20:17;;;;;;;0.50;0.50;;;3.60;99.90;;;;;;4394855;32;20132;-65
2023/03/03 13:22:50;;;;;;;0.60;0.60;;;3.60;99.90;;;;;;4385911;32;20092;-65
2023/03/03 13:25:34;;;;;;;0.50;0.50;;;3.70;99.90;;;;;;4390439;32;20179;-64
2023/03/03 13:28:10;;;;;;;2.00;0.65;;;3.80;99.90;;;;;;4391891;32;20152;-63
2023/03/03 13:30:39;;;;;;;0.80;0.80;;;3.90;99.90;;;;;;4381659;32;20097;-65